Time;durP1;ratioP1;P1;durP2;ratioP2;P2;SDS_P1;SDS_P2;PMS_P1;PMS_P2;Temp;Humidity;BMP_temperature;BMP_pressure;BME280_temperature;BME280_humidity;BME280_pressure;Samples;Min_cycle;Max_cycle;Signal;HPM_P1;HPM_P2
2023/10/08 00:02:25;;;;;;;9.60;2.60;;;;;;;11.11;100.00;101056.75;5015876;28;20081;-58
2023/10/08 00:04:56;;;;;;;12.20;3.25;;;;;;;11.07;100.00;101076.28;5014808;28;20107;-51
2023/10/08 00:07:27;;;;;;;9.57;2.72;;;;;;;11.09;100.00;101089.41;5013035;28;20140;-55
2023/10/08 00:09:55;;;;;;;8.93;2.17;;;;;;;11.13;100.00;101094.44;5014515;28;20092;-53
2023/10/08 00:12:23;;;;;;;9.50;2.25;;;;;;;11.10;100.00;101076.13;5009319;28;20417;-58
2023/10/08 00:14:53;;;;;;;9.85;2.92;;;;;;;11.09;100.00;101069.19;5006758;28;20469;-56
2023/10/08 00:17:20;;;;;;;13.20;2.67;;;;;;;11.12;100.00;101076.94;5017303;28;20449;-58
2023/10/08 00:19:52;;;;;;;4.93;1.90;;;;;;;11.14;100.00;101077.69;5010168;28;20054;-55
2023/10/08 00:22:20;;;;;;;9.18;2.35;;;;;;;11.16;100.00;101073.16;5013521;28;20080;-60
2023/10/08 00:24:49;;;;;;;7.70;2.15;;;;;;;11.14;100.00;101082.94;5013121;28;20108;-56
2023/10/08 00:27:17;;;;;;;10.95;3.13;;;;;;;11.13;100.00;101094.44;5011620;28;20420;-58
2023/10/08 00:29:45;;;;;;;10.75;3.17;;;;;;;11.12;100.00;101079.56;5007172;28;20427;-58
2023/10/08 00:32:12;;;;;;;9.35;2.67;;;;;;;11.12;100.00;101078.69;5005681;28;20045;-56
2023/10/08 00:34:41;;;;;;;9.93;3.03;;;;;;;11.12;100.00;101082.19;5013502;28;20464;-53
2023/10/08 00:37:10;;;;;;;9.45;3.17;;;;;;;11.10;100.00;101094.59;5014863;28;20085;-59
2023/10/08 00:39:39;;;;;;;7.65;2.50;;;;;;;11.13;100.00;101096.22;5015577;28;20054;-56
2023/10/08 00:42:08;;;;;;;10.93;2.78;;;;;;;11.13;100.00;101102.34;5015785;28;20107;-57
2023/10/08 00:44:47;;;;;;;9.85;2.78;;;;;;;11.13;100.00;101101.50;5015497;28;20580;-56
2023/10/08 00:47:21;;;;;;;9.48;3.20;;;;;;;11.16;100.00;101106.56;5011147;28;20054;-53
2023/10/08 00:50:02;;;;;;;9.80;2.92;;;;;;;11.08;100.00;101103.53;5015774;28;20053;-55
2023/10/08 00:52:30;;;;;;;8.27;2.83;;;;;;;11.07;100.00;101117.59;5008065;28;20140;-59
2023/10/08 00:55:08;;;;;;;10.82;2.42;;;;;;;11.05;100.00;101111.56;5018337;28;20540;-53
2023/10/08 00:57:37;;;;;;;9.18;2.50;;;;;;;11.09;100.00;101115.75;4981398;28;20127;-55
2023/10/08 01:00:15;;;;;;;10.38;2.97;;;;;;;11.04;100.00;101118.63;5005384;28;20521;-58
2023/10/08 01:02:45;;;;;;;9.13;2.92;;;;;;;10.98;100.00;101115.47;5011722;28;20073;-54
2023/10/08 01:05:17;;;;;;;13.82;3.60;;;;;;;10.99;100.00;101127.72;5012934;28;20141;-54
2023/10/08 01:07:48;;;;;;;7.32;2.53;;;;;;;11.02;100.00;101119.63;4995267;28;20532;-57
2023/10/08 01:10:20;;;;;;;9.43;2.75;;;;;;;11.02;100.00;101109.09;4993054;28;20070;-56
2023/10/08 01:13:13;;;;;;;8.77;2.50;;;;;;;11.03;100.00;101105.53;5011483;28;20065;-53
2023/10/08 01:15:41;;;;;;;8.75;2.78;;;;;;;11.05;100.00;101117.69;5010046;28;20500;-58
2023/10/08 01:18:15;;;;;;;8.02;2.30;;;;;;;11.03;100.00;101122.22;5009692;28;20103;-58
2023/10/08 01:20:52;;;;;;;7.90;3.00;;;;;;;10.93;100.00;101126.25;5017299;28;20084;-54
2023/10/08 01:23:20;;;;;;;6.03;2.40;;;;;;;10.92;100.00;101132.44;5005418;28;20064;-59
2023/10/08 01:25:57;;;;;;;10.35;3.17;;;;;;;10.92;100.00;101134.22;5013118;28;20054;-53
2023/10/08 01:30:57;;;;;;;6.78;2.00;;;;;;;10.86;100.00;101128.34;5006889;28;20158;-56
2023/10/08 01:33:28;;;;;;;10.77;3.50;;;;;;;10.84;100.00;101139.88;5007612;28;20096;-51
2023/10/08 01:36:04;;;;;;;8.80;3.00;;;;;;;10.86;100.00;101138.03;5005815;28;20122;-56
2023/10/08 01:38:35;;;;;;;8.38;3.00;;;;;;;10.85;100.00;101146.84;5010009;28;20164;-58
2023/10/08 01:41:18;;;;;;;11.80;3.00;;;;;;;10.85;100.00;101144.22;5006002;28;20123;-57
2023/10/08 01:43:46;;;;;;;8.63;2.53;;;;;;;10.77;100.00;101146.41;5004247;28;20057;-55
2023/10/08 01:46:15;;;;;;;9.23;2.75;;;;;;;10.74;100.00;101154.47;4988580;28;20129;-55
2023/10/08 01:48:44;;;;;;;7.55;2.78;;;;;;;10.67;100.00;101153.91;5009491;28;20138;-55
2023/10/08 01:51:24;;;;;;;8.88;2.78;;;;;;;10.70;100.00;101164.28;5000361;28;20115;-52
2023/10/08 01:53:54;;;;;;;11.52;2.97;;;;;;;10.70;100.00;101171.34;4989511;28;20061;-56
2023/10/08 01:56:22;;;;;;;10.82;2.95;;;;;;;10.72;100.00;101172.16;5016410;28;20547;-53
2023/10/08 01:58:49;;;;;;;9.98;2.53;;;;;;;10.72;100.00;101174.78;4988652;28;20581;-54
2023/10/08 02:01:20;;;;;;;11.63;3.10;;;;;;;10.70;100.00;101188.00;5012728;28;20469;-53
2023/10/08 02:03:48;;;;;;;15.50;3.80;;;;;;;10.68;100.00;101181.97;5010176;28;20065;-52
2023/10/08 02:06:15;;;;;;;11.70;3.15;;;;;;;10.67;100.00;101180.25;4998153;28;20691;-50
2023/10/08 02:08:43;;;;;;;12.48;2.75;;;;;;;10.71;100.00;101176.53;5014279;28;20053;-55
2023/10/08 02:11:11;;;;;;;9.52;3.92;;;;;;;10.67;100.00;101174.97;5010959;28;20058;-57
2023/10/08 02:13:38;;;;;;;14.15;3.85;;;;;;;10.65;100.00;101185.59;5013270;28;20554;-54
2023/10/08 02:16:07;;;;;;;8.90;3.03;;;;;;;10.65;100.00;101190.88;5009378;28;20078;-54
2023/10/08 02:18:35;;;;;;;13.55;3.42;;;;;;;10.67;100.00;101182.88;5012012;28;20370;-55
2023/10/08 02:21:02;;;;;;;15.15;3.75;;;;;;;10.70;100.00;101205.59;5015894;28;20049;-56
2023/10/08 02:23:29;;;;;;;9.60;3.83;;;;;;;10.65;100.00;101211.94;5011134;28;20050;-54
2023/10/08 02:25:57;;;;;;;18.40;4.05;;;;;;;10.68;100.00;101218.00;5018615;28;20502;-60
2023/10/08 02:28:25;;;;;;;17.20;4.43;;;;;;;10.70;100.00;101219.59;5013132;28;20406;-56
2023/10/08 02:30:53;;;;;;;7.15;2.92;;;;;;;10.70;100.00;101226.66;5012645;28;20050;-58
2023/10/08 02:33:20;;;;;;;11.75;4.20;;;;;;;10.72;100.00;101248.50;5011144;28;20708;-53
2023/10/08 02:35:49;;;;;;;12.55;3.30;;;;;;;10.73;100.00;101264.22;5012199;28;20129;-53
2023/10/08 02:38:18;;;;;;;15.18;4.40;;;;;;;10.72;100.00;101253.78;5013803;28;20560;-55
2023/10/08 02:40:49;;;;;;;11.85;3.80;;;;;;;10.67;100.00;101242.59;5008970;28;20412;-55
2023/10/08 02:43:17;;;;;;;16.10;4.88;;;;;;;10.69;100.00;101238.13;5011267;28;20076;-57
2023/10/08 02:45:49;;;;;;;14.52;4.20;;;;;;;10.68;100.00;101246.94;5011454;28;20684;-55
2023/10/08 02:48:17;;;;;;;13.82;4.47;;;;;;;10.69;100.00;101238.97;5008833;28;20511;-55
2023/10/08 02:50:46;;;;;;;15.40;3.85;;;;;;;10.72;100.00;101241.47;5013437;28;20573;-54
2023/10/08 02:53:20;;;;;;;14.35;4.25;;;;;;;10.75;100.00;101238.66;5004545;28;20141;-58
2023/10/08 02:55:47;;;;;;;15.70;4.35;;;;;;;10.72;100.00;101241.47;5004332;28;20088;-56
2023/10/08 02:58:15;;;;;;;13.30;4.00;;;;;;;10.74;100.00;101244.00;5012972;28;20133;-56
2023/10/08 03:00:43;;;;;;;12.00;3.92;;;;;;;10.72;100.00;101244.09;4992125;28;20120;-54
2023/10/08 03:03:18;;;;;;;14.85;4.10;;;;;;;10.68;100.00;101246.94;4995890;28;20137;-57
2023/10/08 03:05:47;;;;;;;11.20;4.00;;;;;;;10.70;100.00;101238.03;5010597;28;20081;-53
2023/10/08 03:08:20;;;;;;;9.63;3.83;;;;;;;10.74;100.00;101238.75;5006920;28;20054;-54
2023/10/08 03:10:48;;;;;;;13.75;4.40;;;;;;;10.74;100.00;101241.38;5017671;28;20076;-55
2023/10/08 03:13:16;;;;;;;15.60;4.28;;;;;;;10.75;100.00;101235.16;5010759;28;20046;-53
2023/10/08 03:15:57;;;;;;;12.05;4.55;;;;;;;10.72;100.00;101245.88;5012557;28;20049;-51
2023/10/08 03:18:25;;;;;;;10.95;3.97;;;;;;;10.73;100.00;101242.31;5011475;28;20123;-56
2023/10/08 03:20:52;;;;;;;12.68;4.30;;;;;;;10.76;100.00;101255.31;5012689;28;20053;-57
2023/10/08 03:23:23;;;;;;;15.98;4.65;;;;;;;10.74;100.00;101270.34;5009991;28;20496;-55
2023/10/08 03:25:56;;;;;;;13.73;4.68;;;;;;;10.69;100.00;101272.34;5016115;28;20415;-52
2023/10/08 03:28:24;;;;;;;9.48;3.58;;;;;;;10.72;100.00;101251.13;4991411;28;20616;-55
2023/10/08 03:30:56;;;;;;;12.60;4.05;;;;;;;10.67;100.00;101266.28;5018319;28;20126;-56
2023/10/08 03:33:23;;;;;;;10.30;3.80;;;;;;;10.74;100.00;101272.97;5023911;28;20457;-57
2023/10/08 03:36:00;;;;;;;9.45;3.72;;;;;;;10.77;100.00;101286.84;5011284;28;20053;-53
2023/10/08 03:38:45;;;;;;;;;;;;;;;10.80;100.00;101293.72;5015128;28;20058;-53
2023/10/08 03:41:16;;;;;;;12.43;4.00;;;;;;;10.82;100.00;101294.53;5018430;28;20016;-58
2023/10/08 03:43:55;;;;;;;9.63;3.75;;;;;;;10.80;100.00;101286.69;5021400;28;20436;-55
2023/10/08 03:46:24;;;;;;;10.98;3.97;;;;;;;10.79;100.00;101305.19;5015592;28;20065;-56
2023/10/08 03:48:52;;;;;;;15.68;3.67;;;;;;;10.78;100.00;101306.13;5018690;28;20081;-54
2023/10/08 03:51:22;;;;;;;15.05;3.88;;;;;;;10.77;100.00;101315.81;5012171;28;20113;-56
2023/10/08 03:53:59;;;;;;;18.80;4.30;;;;;;;10.73;100.00;101316.03;5014427;28;20077;-55
2023/10/08 03:56:29;;;;;;;12.32;3.50;;;;;;;10.76;100.00;101329.91;5016353;28;20390;-58
2023/10/08 03:59:00;;;;;;;13.88;4.38;;;;;;;10.77;100.00;101346.56;5014015;28;20057;-52
2023/10/08 04:01:32;;;;;;;11.82;3.60;;;;;;;10.76;100.00;101340.47;5011600;28;20078;-53
2023/10/08 04:04:00;;;;;;;15.77;3.67;;;;;;;10.75;100.00;101346.63;5010500;28;20133;-56
2023/10/08 04:06:37;;;;;;;12.18;4.10;;;;;;;10.76;100.00;101353.63;5008657;28;20054;-53
2023/10/08 04:11:49;;;;;;;13.85;4.13;;;;;;;10.77;100.00;101352.69;5014094;28;20053;-56
2023/10/08 04:14:17;;;;;;;12.23;3.13;;;;;;;10.77;100.00;101350.06;5014978;28;20077;-58
2023/10/08 04:16:46;;;;;;;12.45;3.45;;;;;;;10.78;100.00;101340.38;5008938;28;20528;-53
2023/10/08 04:19:17;;;;;;;9.32;3.63;;;;;;;10.77;100.00;101357.97;5012421;28;20090;-54
2023/10/08 04:21:53;;;;;;;10.80;2.97;;;;;;;10.78;100.00;101359.66;4993092;28;20065;-51
2023/10/08 04:24:28;;;;;;;13.30;3.60;;;;;;;10.72;100.00;101383.66;5011097;28;20116;-57
2023/10/08 04:26:58;;;;;;;19.07;4.13;;;;;;;10.72;100.00;101393.34;5010087;28;20081;-53
2023/10/08 04:29:26;;;;;;;12.75;3.70;;;;;;;10.71;100.00;101384.56;5010998;28;20085;-55
2023/10/08 04:32:11;;;;;;;11.07;3.22;;;;;;;10.74;100.00;101397.59;4975367;28;20054;-52
2023/10/08 04:34:45;;;;;;;12.15;3.65;;;;;;;10.74;100.00;101408.13;4997600;28;20077;-56
2023/10/08 04:37:12;;;;;;;10.10;3.33;;;;;;;10.74;100.00;101415.19;5014489;28;20143;-57
2023/10/08 04:39:46;;;;;;;11.43;3.50;;;;;;;10.76;100.00;101423.84;5018207;28;20053;-56
2023/10/08 04:42:18;;;;;;;13.65;3.53;;;;;;;10.78;100.00;101422.00;5011164;28;20477;-53
2023/10/08 04:44:46;;;;;;;10.25;3.33;;;;;;;10.76;100.00;101411.56;5008212;28;20432;-58
2023/10/08 04:47:31;;;;;;;11.48;3.70;;;;;;;10.75;100.00;101407.19;5009716;28;20084;-57
2023/10/08 04:49:59;;;;;;;15.57;4.50;;;;;;;10.73;100.00;101408.22;5009792;28;20068;-56
2023/10/08 04:52:27;;;;;;;8.90;3.22;;;;;;;10.69;100.00;101419.81;5014457;28;20045;-52
2023/10/08 04:54:56;;;;;;;13.30;3.60;;;;;;;10.62;100.00;101408.69;5014171;28;20088;-56
2023/10/08 04:57:25;;;;;;;13.75;3.63;;;;;;;10.54;100.00;101406.44;5012072;28;20124;-56
2023/10/08 04:59:57;;;;;;;17.40;4.07;;;;;;;10.48;100.00;101413.75;5014614;28;20082;-57
2023/10/08 05:02:48;;;;;;;15.57;4.43;;;;;;;10.42;100.00;101417.53;5007920;28;20061;-55
2023/10/08 05:15:49;;;;;;;14.07;3.90;;;;;;;10.13;100.00;101455.63;5011141;28;20065;-55
2023/10/08 05:28:46;;;;;;;11.52;3.78;;;;;;;9.91;100.00;101476.75;5012399;28;20127;-53
2023/10/08 05:36:28;;;;;;;18.80;4.72;;;;;;;9.95;100.00;101480.09;5009487;28;20058;-52
2023/10/08 05:39:04;;;;;;;11.80;3.75;;;;;;;9.98;100.00;101499.25;5017937;28;20570;-53
2023/10/08 05:41:39;;;;;;;16.98;4.22;;;;;;;9.99;100.00;101490.41;5011817;28;20409;-54
2023/10/08 06:05:23;;;;;;;12.80;3.90;;;;;;;10.25;100.00;101531.44;5003800;28;21253;-56
2023/10/08 06:13:13;;;;;;;9.27;4.18;;;;;;;10.40;100.00;101561.50;5008471;28;20108;-55
2023/10/08 06:18:13;;;;;;;13.93;4.25;;;;;;;10.43;100.00;101587.69;5004865;28;20133;-53
2023/10/08 06:20:43;;;;;;;12.75;3.58;;;;;;;10.50;100.00;101590.94;4990735;28;20116;-56
2023/10/08 06:23:13;;;;;;;15.70;3.92;;;;;;;10.60;100.00;101603.63;5004970;28;20132;-59
2023/10/08 06:25:47;;;;;;;14.77;4.07;;;;;;;10.68;100.00;101616.47;5002143;28;20538;-58
2023/10/08 06:28:18;;;;;;;8.90;2.88;;;;;;;10.85;100.00;101613.06;5012729;28;20108;-59
2023/10/08 06:30:53;;;;;;;7.53;2.50;;;;;;;10.99;100.00;101597.53;5005136;28;20046;-56
2023/10/08 06:33:25;;;;;;;9.75;3.22;;;;;;;11.05;100.00;101605.16;5011005;28;20049;-57
2023/10/08 06:36:02;;;;;;;9.35;2.70;;;;;;;11.06;100.00;101614.75;4991157;28;20604;-56
2023/10/08 06:38:31;;;;;;;10.60;3.17;;;;;;;11.14;100.00;101622.31;5000876;28;20133;-59
2023/10/08 06:41:08;;;;;;;9.10;2.92;;;;;;;11.33;100.00;101631.09;5011938;28;20103;-53
2023/10/08 06:43:37;;;;;;;13.43;3.38;;;;;;;11.45;100.00;101628.84;5008084;28;20081;-56
2023/10/08 06:46:07;;;;;;;9.45;2.40;;;;;;;11.58;100.00;101630.81;4985656;28;20050;-54
2023/10/08 06:48:35;;;;;;;18.48;3.08;;;;;;;11.63;100.00;101635.88;5008699;28;20173;-58
2023/10/08 06:51:12;;;;;;;9.65;3.00;;;;;;;11.64;100.00;101648.13;5007054;28;20571;-55
2023/10/08 06:53:41;;;;;;;8.63;3.20;;;;;;;11.75;100.00;101669.59;5008033;28;20096;-56
2023/10/08 06:56:12;;;;;;;7.03;2.92;;;;;;;11.81;100.00;101656.09;5008394;28;20077;-55
2023/10/08 06:58:45;;;;;;;11.40;2.95;;;;;;;11.56;100.00;101656.41;5007076;28;20133;-55
2023/10/08 07:01:13;;;;;;;8.90;2.50;;;;;;;11.74;100.00;101667.00;5008157;28;20470;-55
2023/10/08 07:03:40;;;;;;;7.72;2.40;;;;;;;11.76;100.00;101666.03;5004476;28;20050;-58
2023/10/08 07:06:25;;;;;;;9.48;2.20;;;;;;;11.77;100.00;101662.47;5005148;28;20077;-54
2023/10/08 07:08:55;;;;;;;7.03;2.10;;;;;;;11.75;100.00;101669.59;5002098;28;20120;-54
2023/10/08 07:11:23;;;;;;;7.68;2.38;;;;;;;11.79;100.00;101671.13;5006593;28;20463;-52
2023/10/08 07:13:50;;;;;;;6.13;2.08;;;;;;;11.89;100.00;101667.19;5008568;28;20053;-56
2023/10/08 07:16:18;;;;;;;12.38;2.92;;;;;;;11.95;100.00;101676.59;5006876;28;20408;-56
2023/10/08 07:18:52;;;;;;;3.85;1.90;;;;;;;12.06;100.00;101689.25;5006702;28;20540;-54
2023/10/08 07:21:23;;;;;;;7.43;2.40;;;;;;;12.16;100.00;101695.81;5007981;28;20112;-62
2023/10/08 07:23:56;;;;;;;5.20;2.05;;;;;;;12.27;100.00;101690.00;5005825;28;20105;-53
2023/10/08 07:26:25;;;;;;;4.88;1.92;;;;;;;12.32;100.00;101702.06;5007156;28;20054;-57
2023/10/08 07:28:53;;;;;;;5.43;1.98;;;;;;;12.36;100.00;101703.63;4987357;28;20457;-56
2023/10/08 07:31:22;;;;;;;9.48;1.83;;;;;;;12.43;100.00;101704.19;5009079;28;20061;-57
2023/10/08 07:33:56;;;;;;;7.57;1.80;;;;;;;12.44;100.00;101707.69;5007629;28;20069;-58
2023/10/08 07:36:26;;;;;;;8.95;2.35;;;;;;;12.54;100.00;101708.91;5008013;28;20041;-57
2023/10/08 07:38:54;;;;;;;12.32;2.28;;;;;;;12.61;100.00;101715.63;5013301;28;20053;-51
2023/10/08 07:41:21;;;;;;;6.25;2.25;;;;;;;12.60;100.00;101717.38;5009907;28;20045;-54
2023/10/08 07:43:55;;;;;;;11.30;2.15;;;;;;;12.70;100.00;101724.84;5015794;28;20045;-56
2023/10/08 07:46:23;;;;;;;4.07;1.77;;;;;;;12.74;100.00;101731.69;5009157;28;20125;-55
2023/10/08 07:48:50;;;;;;;4.80;1.73;;;;;;;12.87;100.00;101724.84;4999628;28;20080;-57
2023/10/08 07:51:22;;;;;;;4.20;1.85;;;;;;;13.00;100.00;101727.72;5008399;28;20052;-56
2023/10/08 07:53:56;;;;;;;5.07;2.15;;;;;;;12.95;99.24;101738.53;5009622;28;20073;-58
2023/10/08 07:56:24;;;;;;;4.38;1.80;;;;;;;13.06;99.03;101735.38;5005846;28;20116;-58
2023/10/08 07:58:55;;;;;;;5.28;1.90;;;;;;;13.02;97.68;101733.81;5011198;28;20089;-54
2023/10/08 08:01:24;;;;;;;3.47;1.42;;;;;;;13.08;96.61;101744.06;5011879;28;20077;-56
2023/10/08 08:03:52;;;;;;;5.40;1.70;;;;;;;13.14;95.26;101739.28;4989894;28;20448;-51
2023/10/08 08:06:19;;;;;;;4.22;1.85;;;;;;;13.32;94.84;101737.50;5008032;28;20449;-58
2023/10/08 08:08:46;;;;;;;3.60;1.50;;;;;;;13.42;93.51;101743.19;4985283;28;20603;-58
2023/10/08 08:11:17;;;;;;;6.88;2.22;;;;;;;13.39;90.83;101746.00;5009497;28;20509;-56
2023/10/08 08:13:45;;;;;;;5.25;1.67;;;;;;;13.51;91.92;101752.41;5006298;28;20073;-52
2023/10/08 08:16:16;;;;;;;3.33;1.33;;;;;;;13.58;89.55;101751.16;5013754;28;20061;-54
2023/10/08 08:18:44;;;;;;;3.05;1.00;;;;;;;13.61;87.68;101758.94;5006249;28;20346;-57
2023/10/08 08:21:15;;;;;;;3.97;1.60;;;;;;;13.81;88.28;101755.19;5008444;28;20045;-54
2023/10/08 08:23:49;;;;;;;4.78;1.50;;;;;;;13.87;86.55;101762.81;5010451;28;20089;-55
2023/10/08 08:26:28;;;;;;;6.10;1.47;;;;;;;13.89;84.18;101758.28;5009153;28;20103;-53
2023/10/08 08:28:59;;;;;;;3.33;1.60;;;;;;;14.03;84.81;101766.31;5005686;28;20046;-54
2023/10/08 08:31:31;;;;;;;3.83;1.17;;;;;;;14.12;83.27;101771.09;5008710;28;20598;-52
2023/10/08 08:34:19;;;;;;;3.00;1.58;;;;;;;14.13;81.06;101777.25;5019199;23;21199;-56
2023/10/08 08:36:48;;;;;;;6.15;1.70;;;;;;;14.17;80.20;101774.34;5022805;28;20081;-56
2023/10/08 08:39:28;;;;;;;5.80;1.27;;;;;;;14.27;79.70;101779.13;5022501;28;20092;-56
2023/10/08 08:42:00;;;;;;;5.10;1.23;;;;;;;14.30;79.24;101781.63;5023744;28;20171;-57
2023/10/08 08:44:31;;;;;;;3.33;1.42;;;;;;;14.36;77.35;101790.09;5022492;28;20131;-55
2023/10/08 08:47:04;;;;;;;6.65;1.58;;;;;;;14.44;76.40;101792.28;5023299;28;20137;-58
2023/10/08 08:49:37;;;;;;;4.63;1.33;;;;;;;14.53;76.77;101796.25;5020970;28;20113;-57
2023/10/08 08:52:04;;;;;;;3.45;1.00;;;;;;;14.63;76.04;101800.94;5012869;28;20140;-58
2023/10/08 08:54:32;;;;;;;3.28;1.10;;;;;;;14.49;74.21;101802.66;5020368;28;20072;-56
2023/10/08 08:57:04;;;;;;;4.50;1.30;;;;;;;14.59;71.28;101796.78;5020050;28;20120;-58
2023/10/08 08:59:31;;;;;;;3.97;0.88;;;;;;;14.69;71.21;101807.69;5024777;28;20057;-56
2023/10/08 09:01:59;;;;;;;3.10;0.70;;;;;;;14.82;69.91;101813.16;5011391;28;20440;-57
2023/10/08 09:04:30;;;;;;;1.85;0.75;;;;;;;14.90;68.09;101810.88;5014577;28;20053;-52
2023/10/08 09:07:04;;;;;;;3.72;1.13;;;;;;;15.00;68.51;101817.38;5019120;28;20074;-55
2023/10/08 09:09:39;;;;;;;2.95;1.10;;;;;;;15.04;68.75;101812.72;5014510;28;20149;-54
2023/10/08 09:12:10;;;;;;;4.68;1.10;;;;;;;15.09;68.53;101814.19;5012008;28;20164;-58
2023/10/08 09:14:41;;;;;;;1.98;0.73;;;;;;;15.18;68.13;101813.63;5011443;28;20555;-56
2023/10/08 09:17:09;;;;;;;4.00;0.95;;;;;;;15.27;67.32;101820.19;5018282;28;20140;-53
2023/10/08 09:19:37;;;;;;;2.95;1.10;;;;;;;15.28;66.42;101819.25;5017062;28;20081;-58
2023/10/08 09:22:11;;;;;;;3.35;1.10;;;;;;;15.35;65.89;101825.03;5016689;28;20050;-54
2023/10/08 09:24:41;;;;;;;1.63;1.02;;;;;;;15.36;65.14;101834.72;5016591;28;20053;-59
2023/10/08 09:27:14;;;;;;;3.17;0.73;;;;;;;15.51;65.64;101839.09;5018012;28;20507;-59
2023/10/08 09:29:42;;;;;;;2.88;1.05;;;;;;;15.57;65.49;101828.09;5021929;28;20065;-59
2023/10/08 09:32:11;;;;;;;3.13;1.00;;;;;;;15.66;66.42;101827.56;5018741;28;20046;-59
2023/10/08 09:34:39;;;;;;;2.25;0.90;;;;;;;15.90;66.36;101829.69;5016299;28;20077;-59
2023/10/08 09:37:10;;;;;;;6.55;1.08;;;;;;;16.07;66.59;101831.25;5014444;28;20108;-59
2023/10/08 09:39:37;;;;;;;4.05;1.30;;;;;;;16.16;66.12;101826.22;5017389;28;20095;-56
2023/10/08 09:42:11;;;;;;;2.40;1.10;;;;;;;16.17;62.08;101829.75;5015204;28;20172;-58
2023/10/08 09:44:39;;;;;;;2.63;1.00;;;;;;;16.10;61.37;101833.72;5018332;28;20520;-57
2023/10/08 09:47:09;;;;;;;3.67;1.10;;;;;;;16.18;61.20;101826.13;5016690;28;20084;-57
2023/10/08 09:50:02;;;;;;;2.15;0.90;;;;;;;16.33;60.09;101834.94;5012510;28;20556;-60
2023/10/08 09:52:35;;;;;;;2.55;0.95;;;;;;;16.46;58.97;101838.50;5020318;28;20140;-59
2023/10/08 09:55:10;;;;;;;4.03;0.90;;;;;;;16.62;57.98;101843.72;5018552;28;20153;-55
2023/10/08 09:57:37;;;;;;;2.60;0.60;;;;;;;16.74;56.41;101852.69;5018515;28;20080;-52
2023/10/08 10:00:10;;;;;;;3.83;1.10;;;;;;;16.80;53.65;101852.31;5018240;28;20070;-58
2023/10/08 10:02:38;;;;;;;4.18;1.13;;;;;;;16.87;54.42;101850.94;5012742;28;20152;-60
2023/10/08 10:05:06;;;;;;;4.40;1.45;;;;;;;17.12;54.53;101852.84;5018387;28;20133;-59
2023/10/08 10:07:35;;;;;;;1.95;0.95;;;;;;;17.07;53.80;101861.13;5019956;28;20099;-59
2023/10/08 10:10:13;;;;;;;3.13;0.77;;;;;;;17.15;51.59;101865.91;5020720;28;20137;-60
2023/10/08 10:12:43;;;;;;;1.38;0.80;;;;;;;16.75;48.00;101857.06;5020253;28;20093;-59
2023/10/08 10:15:11;;;;;;;1.48;0.68;;;;;;;16.81;48.67;101862.00;5017275;28;20476;-59
2023/10/08 10:17:55;;;;;;;2.40;0.85;;;;;;;16.84;46.58;101861.78;5013502;28;20590;-60
2023/10/08 10:20:24;;;;;;;1.38;0.70;;;;;;;16.69;47.35;101866.25;5022835;28;20053;-59
2023/10/08 10:22:51;;;;;;;1.27;0.85;;;;;;;16.82;47.18;101861.03;5019611;28;20232;-59
2023/10/08 10:25:37;;;;;;;3.30;1.10;;;;;;;17.02;47.66;101863.25;5021502;28;20045;-57
2023/10/08 10:28:04;;;;;;;0.88;0.50;;;;;;;17.17;46.69;101862.22;5017081;28;20508;-60
2023/10/08 10:30:32;;;;;;;1.98;0.70;;;;;;;17.00;43.73;101870.47;5016024;28;20668;-59
2023/10/08 10:33:02;;;;;;;2.30;1.10;;;;;;;16.43;42.02;101863.47;5022724;28;20144;-58
2023/10/08 10:35:29;;;;;;;1.55;0.75;;;;;;;16.58;44.94;101872.28;5022761;28;20128;-58
2023/10/08 10:38:03;;;;;;;3.83;0.90;;;;;;;16.96;45.08;101875.13;5019837;28;20136;-59
2023/10/08 10:40:39;;;;;;;2.75;0.70;;;;;;;17.34;45.44;101878.88;5022411;28;20461;-59
2023/10/08 10:43:15;;;;;;;1.85;0.52;;;;;;;17.71;45.56;101886.03;5018805;28;20125;-59
2023/10/08 10:45:47;;;;;;;2.40;1.30;;;;;;;18.02;45.13;101880.44;5020553;28;20045;-58
2023/10/08 10:48:21;;;;;;;2.35;0.85;;;;;;;18.21;44.44;101881.69;5021673;28;20096;-60
2023/10/08 10:53:56;;;;;;;1.63;0.57;;;;;;;18.34;41.07;101881.66;5016561;28;20058;-58
2023/10/08 10:56:30;;;;;;;3.83;1.00;;;;;;;18.26;38.73;101884.00;5015615;28;20240;-59
2023/10/08 10:59:06;;;;;;;2.53;0.90;;;;;;;18.48;38.47;101883.31;5024438;28;21347;-58
2023/10/08 11:01:46;;;;;;;1.50;0.70;;;;;;;18.24;39.12;101880.63;5021078;28;20084;-59
2023/10/08 11:04:19;;;;;;;2.90;1.13;;;;;;;18.40;39.44;101885.69;5019278;28;20077;-59
2023/10/08 11:06:48;;;;;;;1.73;0.73;;;;;;;18.51;38.09;101876.91;5018743;28;20096;-58
2023/10/08 11:09:35;;;;;;;1.70;0.60;;;;;;;17.99;37.86;101884.16;5020290;28;20103;-58
2023/10/08 11:12:10;;;;;;;1.75;0.50;;;;;;;18.20;39.60;101881.78;5019335;28;20057;-59
2023/10/08 11:14:41;;;;;;;;;;;;;;;18.43;38.52;101872.16;5023479;28;20232;-59
2023/10/08 11:17:22;;;;;;;1.25;0.57;;;;;;;18.60;39.06;101876.25;5016774;28;19931;-54
2023/10/08 11:19:50;;;;;;;1.15;0.68;;;;;;;18.88;39.13;101875.13;5021037;28;20074;-59
2023/10/08 11:22:18;;;;;;;0.70;0.60;;;;;;;19.28;38.24;101870.31;5016566;28;20504;-55
2023/10/08 11:24:48;;;;;;;2.88;1.15;;;;;;;19.71;38.47;101870.53;5023421;28;20116;-59
2023/10/08 11:27:28;;;;;;;2.38;0.82;;;;;;;20.12;37.15;101868.25;5020562;28;20099;-57
2023/10/08 11:29:57;;;;;;;1.80;0.70;;;;;;;20.43;37.26;101875.53;5019434;28;22343;-57
2023/10/08 11:32:25;;;;;;;1.85;1.10;;;;;;;20.76;34.95;101872.94;5024800;28;20054;-58
2023/10/08 11:34:59;;;;;;;1.45;0.80;;;;;;;20.81;34.14;101874.28;5025498;28;20154;-56
2023/10/08 11:37:33;;;;;;;1.90;0.77;;;;;;;21.06;34.55;101875.75;5021477;28;20050;-57
2023/10/08 11:40:13;;;;;;;3.77;0.80;;;;;;;21.37;33.56;101876.72;5023200;28;20046;-58
2023/10/08 11:42:43;;;;;;;1.13;0.60;;;;;;;21.47;32.28;101880.31;5018111;28;20527;-59
2023/10/08 11:45:26;;;;;;;2.80;1.30;;;;;;;21.67;33.69;101875.09;5018193;28;20112;-59
2023/10/08 11:48:02;;;;;;;1.13;0.52;;;;;;;22.01;33.01;101870.31;5023331;28;20132;-59
2023/10/08 11:50:32;;;;;;;1.67;1.08;;;;;;;22.65;32.61;101866.44;5019664;28;20053;-59
2023/10/08 11:53:03;;;;;;;1.75;0.80;;;;;;;22.71;30.92;101864.06;5023663;28;20070;-57
2023/10/08 11:55:35;;;;;;;2.92;1.25;;;;;;;23.31;31.43;101868.47;5020814;28;20093;-58
2023/10/08 11:58:10;;;;;;;3.72;1.00;;;;;;;23.83;28.58;101872.50;5019280;28;20137;-58
2023/10/08 12:00:43;;;;;;;1.83;0.80;;;;;;;24.78;27.48;101874.03;5016886;28;20212;-58
2023/10/08 12:03:13;;;;;;;2.08;0.88;;;;;;;25.44;27.44;101878.16;5021817;28;20086;-59
2023/10/08 12:05:47;;;;;;;2.03;0.88;;;;;;;27.23;27.31;101876.19;5019622;28;20049;-59
2023/10/08 12:08:16;;;;;;;1.55;0.98;;;;;;;28.46;24.25;101875.91;5022230;28;20413;-60
2023/10/08 12:10:48;;;;;;;1.52;0.77;;;;;;;28.19;23.10;101886.19;5016828;28;20132;-60
2023/10/08 12:13:16;;;;;;;1.90;1.05;;;;;;;27.26;23.70;101878.56;5023551;28;20145;-59
2023/10/08 12:15:47;;;;;;;2.13;0.95;;;;;;;29.04;23.28;101882.69;5025578;28;20151;-60
2023/10/08 12:18:26;;;;;;;2.40;1.10;;;;;;;30.78;19.70;101882.31;5019990;28;20104;-58
2023/10/08 12:20:56;;;;;;;1.60;1.30;;;;;;;32.11;18.16;101878.78;5016978;28;20077;-56
2023/10/08 12:23:29;;;;;;;1.58;1.25;;;;;;;31.48;19.07;101883.41;5024059;28;20586;-53
2023/10/08 12:25:56;;;;;;;1.48;1.30;;;;;;;33.30;18.67;101874.69;5023566;28;20138;-55
2023/10/08 12:28:24;;;;;;;2.13;1.30;;;;;;;32.39;17.09;101856.91;5027153;28;20045;-58
2023/10/08 12:30:55;;;;;;;2.70;1.35;;;;;;;30.50;18.58;101850.41;5025536;28;20152;-56
2023/10/08 12:33:24;;;;;;;1.42;1.25;;;;;;;31.46;19.47;101852.81;5026107;28;20046;-57
2023/10/08 12:35:58;;;;;;;2.08;1.20;;;;;;;33.34;17.68;101860.41;5017264;28;20119;-57
2023/10/08 12:38:27;;;;;;;2.53;1.55;;;;;;;33.51;18.54;101864.41;5035890;28;20624;-54
2023/10/08 12:40:55;;;;;;;1.67;1.58;;;;;;;35.40;16.97;101860.28;5018872;28;20042;-60
2023/10/08 12:43:27;;;;;;;2.22;1.50;;;;;;;32.85;15.46;101856.16;5020658;28;20089;-59